ADDS TAF Board (Experimental) INFO

IDs: Format: Expanded Condensed

Updated at: 1858 UTC 25 Oct 2014

KORD - Chicago/O'Hare Intl, IL, US

Issued at 1722 UTC 25 Oct 2014
Time1851Z25/19Z25/20Z25/21Z25/22Z25/23Z26/00Z26/01Z26/02Z26/03Z26/04Z26/05Z26/06Z26/07Z
TypeOBSPRVLPRVLPRVLPRVLPRVLPRVLPRVLPRVLPRVLPRVLPRVLPRVLPRVL
VIS10>6>6>6>6>6>6>6>6>6>6>6>6>6
CIG----------------------------
CoverFEWFEWFEWFEWFEWFEWFEWFEWFEWFEWFEWFEWFEWSKC
FltCat--VFRVFRVFRVFRVFRVFRVFRVFRVFRVFRVFRVFRVFR
WX----------------------------
WDir280310310310310300300300300300300300300320
WSpd131216161610101010101010107
WGst2318232323------------------
R04/22
XWnd111216161610101010101010107
XGst2018232323------------------
HWnd-60000-2-2-2-2-2-2-2-21
HGst-110000------------------
R09/27
XWnd28101010555555555
XGst412151515------------------
HWnd-13-9-12-12-12-9-9-9-9-9-9-9-9-4
HGst-23-14-18-18-18------------------
R10/28
XWnd28101010555555555
XGst412151515------------------
HWnd-13-9-12-12-12-9-9-9-9-9-9-9-9-4
HGst-23-14-18-18-18------------------
R14/32
XWnd-8-2-3-3-3-3-3-3-3-3-3-3-3-0
XGst-15-3-4-4-4------------------
HWnd-10-12-16-16-16-9-9-9-9-9-9-9-9-7
HGst-18-18-23-23-23------------------
Raw TAF
KORD 251722Z 2518/2624 31012G18KT P6SM FEW250
  FM252000 31016G23KT P6SM FEW100
  FM252300 30010KT P6SM FEW250
  FM260700 32007KT P6SM SKC
  FM261300 VRB03KT P6SM FEW250
  FM261900 16007KT P6SM FEW100


Raw METAR
KORD 251851Z 28013G23KT 10SM FEW250 22/01 A2992 RMK AO2 SLP129 T02170011
KORD 251751Z 29012KT 10SM FEW100 FEW250 21/04 A2993 RMK AO2 SLP135 T02060039 10206 20117 50001

TAF Board Legend

Hazard VFR MVFR IFR LIFR
Visibility (sm) >5 3≤X≤5 1≤X<3 <1
Ceiling (100 ft) >30 10≤X≤30 5≤X<10 <5
Wind Speed (kt) <10 10≤X<20 20≤X<30 ≥30
Wind Gust (kt) <15 15≤X<25 25≤X<35 ≥35
Weather No Wx Reported VCTS,-TS,-FZRA TS,FZRA +TS,+FZRA


Page loaded:  18:58 UTC  |   11:58 AM Pacific  |   12:58 PM Mountain  |   01:58 PM Central  |   02:58 PM Eastern

 

ADVISORIES

FORECASTS

FORECASTS

OBSERVATIONS

USER TOOLS

ABOUT US